Main page
METAR-TAF:

METAR-TAF

Airports :

Doha, Qatar

Doha International Airport

latitude: 25-15-40N, longitude: 051-33-54E, elevation: 11 m

Current weather observation

The report was made 1 hour and 14 minutes ago, at 17:00 UTC
Wind 15 kt from the North
Temperature 27°C
Humidity 48%
Pressure 1010 hPa
Visibility 10 km or more
no clouds below 1500 m and no cumulonimbus

METAR: OTBD 241700Z 35015KT CAVOK 27/15 Q1010 NOSIG

Time: 21:14 (18:14 UTC)

Forecast

The report was made 1 hour and 10 minutes ago, at 17:04 UTC
Forecast valid from 24 at 18 UTC to 26 at 00 UTC
Wind 12 kt from the North
Visibility: 7000 m
Few clouds at a height of 4000 ft
Scattered clouds at a height of 10000 ft
Probability 30% :
Temporary
from 24 at 20 UTC to 25 at 02 UTC
Visibility: 6000 m
Few clouds at a height of 3000 ft
light rain

TAF: OTBD 241704Z 2418/2600 35012KT 7000 FEW040 SCT100 PROB30 TEMPO 2420/2502 6000 -RA FEW030

Weather observations and forecasts of more than 4000 airports (METAR and TAF reports).

The available stations are represented by yellow and red dots on the map.

Hover mouse over dot to see the name of the station.

Then click to see weather observations and forecasts.

To change the map : click on the green buttons with a black cross to zoom in, on the green button with a dash to zoom out, or on the green arrows for adjacent maps.


METAR-TAF: